Time;durP1;ratioP1;P1;durP2;ratioP2;P2;SDS_P1;SDS_P2;PMS_P1;PMS_P2;Temp;Humidity;BMP_temperature;BMP_pressure;BME280_temperature;BME280_humidity;BME280_pressure;Samples;Min_cycle;Max_cycle;Signal;HPM_P1;HPM_P2
2024/02/07 00:00:17;;;;;;;3.83;1.05;;;7.10;99.90;;;;;;5042040;28;20373;-35
2024/02/07 00:02:43;;;;;;;6.05;1.65;;;7.10;99.90;;;;;;5042839;28;20498;-34
2024/02/07 00:05:08;;;;;;;6.57;1.15;;;7.00;99.90;;;;;;5043004;28;20135;-33
2024/02/07 00:07:34;;;;;;;2.10;1.00;;;7.00;99.90;;;;;;5041537;28;20432;-36
2024/02/07 00:10:00;;;;;;;2.95;1.00;;;7.00;99.90;;;;;;5042328;28;20037;-35
2024/02/07 00:12:25;;;;;;;4.97;0.90;;;7.00;99.90;;;;;;5042385;28;20558;-32
2024/02/07 00:14:51;;;;;;;3.65;0.90;;;7.00;99.90;;;;;;5041778;28;20113;-36
2024/02/07 00:17:17;;;;;;;3.80;0.90;;;6.90;99.90;;;;;;5042747;28;20506;-36
2024/02/07 00:19:42;;;;;;;4.72;1.23;;;7.00;99.90;;;;;;5042875;28;20604;-34
2024/02/07 00:22:08;;;;;;;6.03;1.00;;;7.00;99.90;;;;;;5041855;28;20033;-36
2024/02/07 00:24:33;;;;;;;3.28;0.80;;;7.00;99.90;;;;;;5041946;28;20029;-33
2024/02/07 00:26:59;;;;;;;3.13;0.90;;;7.00;99.90;;;;;;5042443;28;20028;-36
2024/02/07 00:29:24;;;;;;;2.35;0.60;;;7.00;99.90;;;;;;5041872;28;20040;-35
2024/02/07 00:31:50;;;;;;;1.70;0.65;;;7.00;99.90;;;;;;5042535;28;20025;-37
2024/02/07 00:34:16;;;;;;;2.72;0.70;;;7.00;99.90;;;;;;5042497;28;20036;-34
2024/02/07 00:36:42;;;;;;;2.45;0.70;;;7.00;99.90;;;;;;5042502;28;20017;-36
2024/02/07 00:39:07;;;;;;;2.67;0.63;;;7.00;99.90;;;;;;5042125;28;20117;-37
2024/02/07 00:41:33;;;;;;;2.50;0.70;;;7.00;99.90;;;;;;5041510;28;20029;-35
2024/02/07 00:43:59;;;;;;;2.55;0.50;;;7.00;99.90;;;;;;5042605;28;20025;-36
2024/02/07 00:46:24;;;;;;;2.50;0.85;;;7.00;99.90;;;;;;5042040;28;20052;-35
2024/02/07 00:48:50;;;;;;;1.65;0.73;;;7.00;99.90;;;;;;5042181;28;20124;-37
2024/02/07 00:51:15;;;;;;;2.72;0.60;;;7.00;99.90;;;;;;5042482;28;20807;-33
2024/02/07 00:53:42;;;;;;;2.05;0.60;;;6.90;99.90;;;;;;5043188;28;20041;-33
2024/02/07 00:56:07;;;;;;;1.88;0.80;;;6.90;99.90;;;;;;5041950;28;20031;-37
2024/02/07 00:58:34;;;;;;;0.95;0.52;;;6.90;99.90;;;;;;5042290;28;20029;-33
2024/02/07 01:00:59;;;;;;;1.88;0.70;;;6.90;99.90;;;;;;5041894;28;20029;-38
2024/02/07 01:03:25;;;;;;;1.85;0.50;;;6.90;99.90;;;;;;5039873;28;20028;-35
2024/02/07 01:05:51;;;;;;;2.08;0.82;;;6.80;99.90;;;;;;5039959;28;20041;-34
2024/02/07 01:08:17;;;;;;;3.08;0.95;;;6.80;99.90;;;;;;5039030;28;20794;-32
2024/02/07 01:10:44;;;;;;;0.98;0.43;;;6.80;99.90;;;;;;5039219;28;20116;-39
2024/02/07 01:13:09;;;;;;;0.90;0.40;;;6.80;99.90;;;;;;5039638;28;20619;-33
2024/02/07 01:15:35;;;;;;;1.15;0.60;;;6.80;99.90;;;;;;5040389;28;20119;-36
2024/02/07 01:18:01;;;;;;;1.40;0.68;;;6.80;99.90;;;;;;5040457;28;20029;-36
2024/02/07 01:20:27;;;;;;;2.78;0.50;;;6.80;99.90;;;;;;5041412;28;20761;-34
2024/02/07 01:22:53;;;;;;;3.20;0.73;;;6.70;99.90;;;;;;5041568;28;20037;-36
2024/02/07 01:25:18;;;;;;;0.52;0.40;;;6.70;99.90;;;;;;5040645;28;20053;-35
2024/02/07 01:27:44;;;;;;;1.13;0.40;;;6.70;99.90;;;;;;5042032;28;20494;-36
2024/02/07 01:30:11;;;;;;;1.23;0.50;;;6.70;99.90;;;;;;5040890;28;20025;-35
2024/02/07 01:32:41;;;;;;;1.33;0.50;;;6.70;99.90;;;;;;5040722;28;20486;-35
2024/02/07 01:35:09;;;;;;;1.75;0.52;;;6.70;99.90;;;;;;5041099;28;20083;-36
2024/02/07 01:37:35;;;;;;;2.63;0.73;;;6.70;99.90;;;;;;5037284;28;20096;-32
2024/02/07 01:40:01;;;;;;;2.40;0.68;;;6.70;99.90;;;;;;5040296;28;20053;-37
2024/02/07 01:42:31;;;;;;;2.55;0.80;;;6.70;99.90;;;;;;5040897;28;20107;-35
2024/02/07 01:45:31;;;;;;;3.00;0.65;;;6.70;99.90;;;;;;5040971;28;20025;-36
2024/02/07 01:47:57;;;;;;;2.97;0.75;;;6.70;99.90;;;;;;5037764;28;20634;-36
2024/02/07 01:50:24;;;;;;;1.23;0.50;;;6.70;99.90;;;;;;5040783;28;20491;-37
2024/02/07 01:52:54;;;;;;;1.15;0.70;;;6.70;99.90;;;;;;5041344;28;20044;-37
2024/02/07 01:55:20;;;;;;;2.63;0.70;;;6.70;99.90;;;;;;5041206;28;20483;-34
2024/02/07 01:57:48;;;;;;;2.13;0.57;;;6.80;99.90;;;;;;5040877;28;20075;-35
2024/02/07 02:00:14;;;;;;;5.05;0.90;;;6.70;99.90;;;;;;5040406;28;20021;-36
2024/02/07 02:02:40;;;;;;;3.17;1.42;;;6.70;99.90;;;;;;5041427;28;20030;-37
2024/02/07 02:05:06;;;;;;;2.67;0.77;;;6.60;99.90;;;;;;5040794;28;20051;-36
2024/02/07 02:07:32;;;;;;;1.50;0.65;;;6.50;99.90;;;;;;5039700;28;20053;-37
2024/02/07 02:09:58;;;;;;;3.38;0.68;;;6.50;99.90;;;;;;5040820;28;20124;-35
2024/02/07 02:12:24;;;;;;;6.78;1.88;;;6.40;99.90;;;;;;5039987;28;20029;-37
2024/02/07 02:14:50;;;;;;;2.97;0.70;;;6.30;99.90;;;;;;5040488;28;20060;-37
2024/02/07 02:17:19;;;;;;;2.85;0.70;;;6.30;99.90;;;;;;5039864;28;20719;-36
2024/02/07 02:19:45;;;;;;;6.47;1.10;;;6.30;99.90;;;;;;5040665;28;20025;-38
2024/02/07 02:22:22;;;;;;;3.40;0.73;;;6.30;99.90;;;;;;5039400;28;20140;-35
2024/02/07 02:25:00;;;;;;;3.10;0.82;;;6.40;99.90;;;;;;5041209;28;20033;-35
2024/02/07 02:28:00;;;;;;;2.53;0.77;;;6.30;99.90;;;;;;5039479;28;20108;-35
2024/02/07 02:30:33;;;;;;;2.58;0.80;;;6.30;99.90;;;;;;5040324;28;20147;-37
2024/02/07 02:33:08;;;;;;;4.72;1.08;;;6.30;99.90;;;;;;5041140;28;20031;-35
2024/02/07 02:35:38;;;;;;;1.95;1.05;;;6.30;99.90;;;;;;5039986;28;20558;-36
2024/02/07 02:38:05;;;;;;;1.00;0.50;;;6.30;99.90;;;;;;5039846;28;20558;-37
2024/02/07 02:40:31;;;;;;;2.33;0.82;;;6.30;99.90;;;;;;5039788;28;20452;-35
2024/02/07 02:43:01;;;;;;;3.25;0.60;;;6.30;99.90;;;;;;5039833;28;20391;-36
2024/02/07 02:45:27;;;;;;;4.55;1.13;;;6.30;99.90;;;;;;5039990;28;20499;-35
2024/02/07 02:47:52;;;;;;;3.35;0.70;;;6.20;99.90;;;;;;5039698;28;20033;-35
2024/02/07 02:50:25;;;;;;;3.63;0.82;;;6.30;99.90;;;;;;5039472;28;20029;-36
2024/02/07 02:52:51;;;;;;;2.72;0.75;;;6.20;99.90;;;;;;5040731;28;20111;-34
2024/02/07 02:55:17;;;;;;;2.15;0.70;;;6.30;99.90;;;;;;5039412;28;20029;-33
2024/02/07 02:57:45;;;;;;;1.38;0.63;;;6.30;99.90;;;;;;5040455;28;20040;-37
2024/02/07 03:00:14;;;;;;;2.97;0.57;;;6.30;99.90;;;;;;5038172;28;20738;-35
2024/02/07 03:02:43;;;;;;;2.08;0.63;;;6.30;99.90;;;;;;5039771;28;20052;-37
2024/02/07 03:05:37;;;;;;;3.22;0.90;;;6.30;99.90;;;;;;5039793;28;20024;-31
2024/02/07 03:08:04;;;;;;;4.90;1.30;;;6.30;99.90;;;;;;5040574;28;20053;-37
2024/02/07 03:10:30;;;;;;;5.53;0.88;;;6.10;99.90;;;;;;5039251;28;20028;-35
2024/02/07 03:12:56;;;;;;;2.03;0.60;;;6.00;99.90;;;;;;5040236;28;20375;-36
2024/02/07 03:15:22;;;;;;;2.08;0.70;;;5.90;99.90;;;;;;5039640;28;20028;-36
2024/02/07 03:17:48;;;;;;;1.52;0.43;;;5.80;99.90;;;;;;5039519;28;20048;-35
2024/02/07 03:20:14;;;;;;;1.50;0.50;;;5.80;99.90;;;;;;5039258;28;20082;-37
2024/02/07 03:22:40;;;;;;;5.03;0.90;;;5.80;99.90;;;;;;5040432;28;20701;-37
2024/02/07 03:25:07;;;;;;;2.35;0.70;;;5.70;99.90;;;;;;5038534;28;20027;-34
2024/02/07 03:27:34;;;;;;;1.50;0.50;;;5.70;99.90;;;;;;5038914;28;20579;-38
2024/02/07 03:30:00;;;;;;;2.53;0.80;;;5.60;99.90;;;;;;5039027;28;20116;-36
2024/02/07 03:32:26;;;;;;;2.42;0.70;;;5.60;99.90;;;;;;5037950;28;20044;-37
2024/02/07 03:34:51;;;;;;;2.70;0.75;;;5.60;99.90;;;;;;5039291;28;20036;-35
2024/02/07 03:37:17;;;;;;;2.20;0.65;;;5.60;99.90;;;;;;5038999;28;20025;-37
2024/02/07 03:39:43;;;;;;;2.15;0.60;;;5.50;99.90;;;;;;5038977;28;20025;-37
2024/02/07 03:42:10;;;;;;;1.75;0.40;;;5.50;99.90;;;;;;5039269;28;20389;-36
2024/02/07 03:44:37;;;;;;;1.27;0.60;;;5.60;99.90;;;;;;5039173;28;20027;-36
2024/02/07 03:47:02;;;;;;;1.70;0.50;;;5.60;99.90;;;;;;5039885;28;20079;-37
2024/02/07 03:49:28;;;;;;;2.67;0.63;;;5.50;99.90;;;;;;5039564;28;20041;-37
2024/02/07 03:51:53;;;;;;;2.28;0.60;;;5.50;99.90;;;;;;5038914;28;20479;-36
2024/02/07 03:54:19;;;;;;;3.50;0.80;;;5.60;99.90;;;;;;5039000;28;20108;-34
2024/02/07 03:56:45;;;;;;;2.90;0.70;;;5.50;99.90;;;;;;5039084;28;20071;-38
2024/02/07 03:59:10;;;;;;;2.10;0.70;;;5.50;99.90;;;;;;5037650;28;20789;-35
2024/02/07 04:01:36;;;;;;;2.85;0.68;;;5.50;99.90;;;;;;5038491;28;20036;-35
2024/02/07 04:04:05;;;;;;;4.13;0.70;;;5.50;99.90;;;;;;5038870;28;20612;-36
2024/02/07 04:06:31;;;;;;;1.50;0.52;;;5.60;99.90;;;;;;5036750;28;20831;-38
2024/02/07 04:08:57;;;;;;;2.58;0.47;;;5.60;99.90;;;;;;5039038;28;20048;-35
2024/02/07 05:16:41;;;;;;;5.40;0.70;;;5.80;99.90;;;;;;5022261;28;20130;-37
2024/02/07 05:19:06;;;;;;;4.85;0.65;;;5.80;99.90;;;;;;5036559;28;20032;-34
2024/02/07 05:21:35;;;;;;;1.77;0.70;;;5.80;99.90;;;;;;5042038;28;20043;-37
2024/02/07 05:24:01;;;;;;;1.50;0.50;;;5.90;99.90;;;;;;5041370;28;20025;-37
2024/02/07 05:26:26;;;;;;;1.15;0.50;;;5.90;99.90;;;;;;5041973;28;20459;-36
2024/02/07 05:28:52;;;;;;;2.10;0.70;;;5.90;99.90;;;;;;5042263;28;20056;-35
2024/02/07 05:31:17;;;;;;;2.85;0.68;;;5.90;99.90;;;;;;5040785;28;20017;-32
2024/02/07 05:33:43;;;;;;;2.72;0.52;;;5.90;99.90;;;;;;5041489;28;20025;-37
2024/02/07 05:36:09;;;;;;;2.63;0.60;;;5.90;99.90;;;;;;5041698;28;20851;-37
2024/02/07 05:38:34;;;;;;;1.75;0.70;;;6.00;99.90;;;;;;5040183;28;20027;-34
2024/02/07 05:41:01;;;;;;;2.05;1.05;;;6.00;99.90;;;;;;5041531;28;20125;-38
2024/02/07 05:43:27;;;;;;;1.95;0.80;;;6.00;99.90;;;;;;5041557;28;20037;-37
2024/02/07 05:45:55;;;;;;;3.10;1.08;;;6.00;99.90;;;;;;5040422;28;20056;-34
2024/02/07 05:48:21;;;;;;;2.40;0.70;;;6.00;99.90;;;;;;5041413;28;20045;-36
2024/02/07 05:50:46;;;;;;;4.85;0.98;;;6.00;99.90;;;;;;5040917;28;20017;-36
2024/02/07 05:53:12;;;;;;;3.30;0.75;;;6.00;99.90;;;;;;5039693;28;20024;-36
2024/02/07 05:55:38;;;;;;;2.08;0.60;;;6.00;99.90;;;;;;5039806;28;20171;-37
2024/02/07 05:58:05;;;;;;;2.25;0.75;;;6.00;99.90;;;;;;5040657;28;20017;-34
2024/02/07 06:00:31;;;;;;;3.00;0.85;;;5.90;99.90;;;;;;5040093;28;20704;-36
2024/02/07 06:02:56;;;;;;;3.33;0.75;;;5.90;99.90;;;;;;5040013;28;20117;-36
2024/02/07 06:05:22;;;;;;;1.67;0.65;;;5.90;99.90;;;;;;5039690;28;20021;-31
2024/02/07 06:07:50;;;;;;;2.03;0.70;;;5.90;99.90;;;;;;5040538;28;20704;-35
2024/02/07 06:10:19;;;;;;;4.00;0.90;;;5.90;99.90;;;;;;5040258;28;20071;-36
2024/02/07 06:12:46;;;;;;;2.55;0.90;;;5.90;99.90;;;;;;5040037;28;20384;-36
2024/02/07 06:15:12;;;;;;;3.15;0.80;;;5.90;99.90;;;;;;5039512;28;20032;-35
2024/02/07 06:17:38;;;;;;;4.88;0.85;;;5.80;99.90;;;;;;5040166;28;20029;-36
2024/02/07 06:20:05;;;;;;;2.97;0.80;;;5.80;99.90;;;;;;5039585;28;20053;-35
2024/02/07 06:22:31;;;;;;;2.75;0.90;;;5.80;99.90;;;;;;5040108;28;20075;-33
2024/02/07 06:24:59;;;;;;;3.65;0.70;;;5.80;99.90;;;;;;5039701;28;20029;-38
2024/02/07 06:27:25;;;;;;;1.45;0.70;;;5.80;99.90;;;;;;5039566;28;20017;-35
2024/02/07 06:29:50;;;;;;;1.48;0.70;;;5.80;99.90;;;;;;5040929;28;20816;-37
2024/02/07 06:32:16;;;;;;;1.35;0.63;;;5.80;99.90;;;;;;5039697;28;20025;-36
2024/02/07 06:34:41;;;;;;;3.53;0.80;;;5.80;99.90;;;;;;5039655;28;20032;-36
2024/02/07 06:37:07;;;;;;;2.47;0.90;;;5.70;99.90;;;;;;5040033;28;20020;-35
2024/02/07 06:39:33;;;;;;;3.35;0.90;;;5.70;99.90;;;;;;5039776;28;20332;-36
2024/02/07 06:41:59;;;;;;;2.95;0.80;;;5.70;99.90;;;;;;5039458;28;20029;-33
2024/02/07 06:44:24;;;;;;;4.05;1.02;;;5.70;99.90;;;;;;5039361;28;20033;-35
2024/02/07 06:46:50;;;;;;;4.03;2.05;;;5.70;99.90;;;;;;5037600;28;20110;-35
2024/02/07 06:49:16;;;;;;;1.85;0.70;;;5.70;99.90;;;;;;5038217;28;20107;-36
2024/02/07 06:51:41;;;;;;;3.97;0.80;;;5.70;99.90;;;;;;5038511;28;20025;-34
2024/02/07 06:54:07;;;;;;;2.85;0.80;;;5.70;99.90;;;;;;5039062;28;20129;-32
2024/02/07 06:56:32;;;;;;;3.38;0.80;;;5.70;99.90;;;;;;5038321;28;20025;-35
2024/02/07 06:58:59;;;;;;;4.40;0.90;;;5.70;99.90;;;;;;5039926;28;20041;-37
2024/02/07 07:01:26;;;;;;;2.40;0.95;;;5.70;99.90;;;;;;5039323;28;21132;-33
2024/02/07 07:03:53;;;;;;;2.80;0.68;;;5.70;99.90;;;;;;5039759;28;20103;-35
2024/02/07 07:06:19;;;;;;;2.08;1.02;;;5.70;99.90;;;;;;5038761;28;20052;-36
2024/02/07 07:08:45;;;;;;;4.50;1.02;;;5.70;99.90;;;;;;5039586;28;20033;-33
2024/02/07 07:11:11;;;;;;;2.80;0.80;;;5.70;99.90;;;;;;5039383;28;20128;-33
2024/02/07 07:13:36;;;;;;;1.15;0.65;;;5.70;99.90;;;;;;5039484;28;20067;-35
2024/02/07 07:16:02;;;;;;;1.88;1.15;;;5.70;99.90;;;;;;5036307;28;20134;-37
2024/02/07 07:18:28;;;;;;;2.10;0.80;;;5.70;99.90;;;;;;5038981;28;20025;-35
2024/02/07 07:20:54;;;;;;;2.35;0.70;;;5.70;99.90;;;;;;5039503;28;20029;-36
2024/02/07 07:23:19;;;;;;;4.53;1.10;;;5.70;99.90;;;;;;5038569;28;20025;-34
2024/02/07 07:25:45;;;;;;;1.98;0.88;;;5.70;99.90;;;;;;5039846;28;20107;-36
2024/02/07 07:28:11;;;;;;;4.28;1.23;;;5.60;99.90;;;;;;5038609;28;20068;-37
2024/02/07 07:30:36;;;;;;;2.15;0.90;;;5.70;99.90;;;;;;5037785;28;20029;-32
2024/02/07 07:33:05;;;;;;;3.03;0.90;;;5.70;99.90;;;;;;5039104;28;20758;-35
2024/02/07 07:35:31;;;;;;;2.33;1.00;;;5.70;99.90;;;;;;5038719;28;20475;-38
2024/02/07 07:37:56;;;;;;;1.23;0.75;;;5.70;99.90;;;;;;5037762;28;20021;-35
2024/02/07 07:40:23;;;;;;;1.98;1.00;;;5.80;99.90;;;;;;5038912;28;20135;-38
2024/02/07 07:42:48;;;;;;;2.42;1.10;;;5.80;99.90;;;;;;5039839;28;20116;-37
2024/02/07 07:45:17;;;;;;;2.08;0.82;;;5.80;99.90;;;;;;5039690;28;20539;-36
2024/02/07 07:47:43;;;;;;;3.45;1.15;;;5.80;99.90;;;;;;5040468;28;20468;-38
2024/02/07 07:50:11;;;;;;;3.13;0.98;;;5.80;99.90;;;;;;5039646;28;20090;-35
2024/02/07 07:52:37;;;;;;;3.67;1.20;;;5.80;99.90;;;;;;5036821;28;20048;-36
2024/02/07 07:55:02;;;;;;;2.05;1.10;;;5.80;99.90;;;;;;5038461;28;20120;-37
2024/02/07 07:57:28;;;;;;;2.45;1.10;;;5.80;99.90;;;;;;5038815;28;20024;-34
2024/02/07 07:59:54;;;;;;;2.38;1.33;;;5.80;99.90;;;;;;5037067;28;20048;-35
2024/02/07 08:02:20;;;;;;;3.33;1.10;;;5.80;99.90;;;;;;5038923;28;20029;-33
2024/02/07 08:04:49;;;;;;;2.10;1.10;;;5.90;99.90;;;;;;5038672;28;20055;-36
2024/02/07 08:07:18;;;;;;;3.50;0.98;;;5.90;99.90;;;;;;5038144;28;20142;-38
2024/02/07 08:09:43;;;;;;;3.95;1.40;;;5.90;99.90;;;;;;5037926;28;20091;-36
2024/02/07 08:12:13;;;;;;;3.00;1.15;;;5.80;99.90;;;;;;5038517;28;20040;-37
2024/02/07 08:14:39;;;;;;;3.83;1.00;;;5.90;99.90;;;;;;5038719;28;20041;-38
2024/02/07 08:17:04;;;;;;;2.88;0.90;;;5.80;99.90;;;;;;5039377;28;20029;-37
2024/02/07 08:19:30;;;;;;;5.38;1.10;;;5.90;99.90;;;;;;5041295;28;20028;-37
2024/02/07 08:21:55;;;;;;;5.60;1.20;;;5.90;99.90;;;;;;5042184;28;20041;-37
2024/02/07 08:24:21;;;;;;;3.63;1.00;;;5.90;99.90;;;;;;5042737;28;20075;-38
2024/02/07 08:26:46;;;;;;;5.65;1.27;;;5.90;99.90;;;;;;5041859;28;20525;-37
2024/02/07 08:29:12;;;;;;;4.93;1.15;;;5.90;99.90;;;;;;5041446;28;20033;-33
2024/02/07 08:31:44;;;;;;;4.90;1.30;;;5.90;99.90;;;;;;5042444;28;20029;-33
2024/02/07 08:34:10;;;;;;;2.05;1.42;;;5.90;99.90;;;;;;5041124;28;20490;-36
2024/02/07 08:36:36;;;;;;;3.58;1.30;;;6.00;99.90;;;;;;5042347;28;20021;-36
2024/02/07 08:39:04;;;;;;;5.22;1.20;;;6.00;99.90;;;;;;5042845;28;20367;-37
2024/02/07 08:41:33;;;;;;;3.55;1.20;;;6.10;99.90;;;;;;5041066;28;20024;-35
2024/02/07 08:43:58;;;;;;;4.15;1.40;;;6.00;99.90;;;;;;5043049;28;20087;-37
2024/02/07 08:46:24;;;;;;;2.95;1.30;;;6.10;99.90;;;;;;5041891;28;20488;-37
2024/02/07 08:48:50;;;;;;;1.35;0.93;;;6.10;99.90;;;;;;5041374;28;20040;-37
2024/02/07 08:51:16;;;;;;;3.05;1.20;;;6.10;99.90;;;;;;5042141;28;20460;-36
2024/02/07 08:53:41;;;;;;;3.85;1.20;;;6.10;99.90;;;;;;5042167;28;20139;-37
2024/02/07 08:56:08;;;;;;;3.22;1.23;;;6.10;99.90;;;;;;5039962;28;20041;-38
2024/02/07 08:58:38;;;;;;;2.47;1.13;;;6.10;99.90;;;;;;5042212;28;20125;-37
2024/02/07 09:01:08;;;;;;;2.03;1.10;;;6.10;99.90;;;;;;5041080;28;20025;-34
2024/02/07 09:03:34;;;;;;;2.30;1.00;;;6.10;99.90;;;;;;5041638;28;20411;-35
2024/02/07 09:06:00;;;;;;;3.17;1.35;;;6.20;99.90;;;;;;5041929;28;20067;-38
2024/02/07 09:08:29;;;;;;;5.60;1.27;;;6.20;99.90;;;;;;5041587;28;20114;-36
2024/02/07 09:10:58;;;;;;;2.97;1.38;;;6.20;99.90;;;;;;5041278;28;20929;-37
2024/02/07 09:13:24;;;;;;;4.45;1.65;;;6.20;99.90;;;;;;5041702;28;20951;-36
2024/02/07 09:15:49;;;;;;;2.53;1.23;;;6.20;99.90;;;;;;5041245;28;20033;-35
2024/02/07 09:18:15;;;;;;;2.58;1.40;;;6.30;99.90;;;;;;5041066;28;20029;-37
2024/02/07 09:20:40;;;;;;;5.00;1.35;;;6.30;99.90;;;;;;5041386;28;20870;-36
2024/02/07 09:23:09;;;;;;;2.50;1.20;;;6.30;99.90;;;;;;5041099;28;20053;-36
2024/02/07 09:25:34;;;;;;;3.75;1.30;;;6.30;99.90;;;;;;5041490;28;20086;-33
2024/02/07 09:28:00;;;;;;;2.80;1.42;;;6.30;99.90;;;;;;5040766;28;20025;-37
2024/02/07 09:30:25;;;;;;;4.55;1.30;;;6.30;99.90;;;;;;5039597;28;20027;-34
2024/02/07 09:32:51;;;;;;;2.05;1.40;;;6.40;99.90;;;;;;5040230;28;20020;-35
2024/02/07 09:35:16;;;;;;;3.50;1.73;;;6.50;99.90;;;;;;5041382;28;20032;-38
2024/02/07 09:37:42;;;;;;;3.95;1.40;;;6.50;99.90;;;;;;5040593;28;20025;-36
2024/02/07 09:40:08;;;;;;;3.53;1.33;;;6.60;99.90;;;;;;5041201;28;20032;-34
2024/02/07 09:42:38;;;;;;;2.72;1.23;;;6.60;99.90;;;;;;5041037;28;20021;-35
2024/02/07 09:45:06;;;;;;;6.35;1.73;;;6.60;99.90;;;;;;5040122;28;20047;-37
2024/02/07 09:47:45;;;;;;;4.57;1.55;;;6.70;99.90;;;;;;5040191;28;20024;-37
2024/02/07 09:50:12;;;;;;;5.88;1.58;;;6.70;99.90;;;;;;5039756;28;20813;-36
2024/02/07 09:52:40;;;;;;;6.80;1.70;;;6.70;99.90;;;;;;5040676;28;20139;-38
2024/02/07 09:55:07;;;;;;;7.22;1.75;;;6.70;99.90;;;;;;5040374;28;20033;-37
2024/02/07 09:57:33;;;;;;;3.22;1.48;;;6.80;99.90;;;;;;5039623;28;20116;-37
2024/02/07 09:59:59;;;;;;;4.05;1.65;;;6.70;99.90;;;;;;5040855;28;20045;-36
2024/02/07 10:02:26;;;;;;;3.97;1.17;;;6.80;99.90;;;;;;5040475;28;20104;-36
2024/02/07 10:04:54;;;;;;;3.65;1.10;;;6.80;99.90;;;;;;5040424;28;20029;-37
2024/02/07 10:07:20;;;;;;;5.03;1.63;;;6.80;99.90;;;;;;5039964;28;20052;-35
2024/02/07 10:09:49;;;;;;;6.95;1.83;;;6.80;99.90;;;;;;5040197;28;20048;-41
2024/02/07 10:12:16;;;;;;;5.05;1.50;;;6.80;99.90;;;;;;5039863;28;20032;-38
2024/02/07 10:14:43;;;;;;;3.60;1.10;;;6.90;99.90;;;;;;5038740;28;20033;-35
2024/02/07 10:17:09;;;;;;;2.08;1.27;;;6.90;99.90;;;;;;5040123;28;20456;-32
2024/02/07 10:19:35;;;;;;;4.28;1.30;;;6.90;99.90;;;;;;5039186;28;20120;-37
2024/02/07 10:22:12;;;;;;;6.32;1.30;;;6.90;99.90;;;;;;5040382;28;20210;-35
2024/02/07 10:24:41;;;;;;;3.42;1.30;;;6.90;99.90;;;;;;5039839;28;20028;-37
2024/02/07 10:27:06;;;;;;;3.13;1.10;;;6.90;99.90;;;;;;5039039;28;20527;-35
2024/02/07 10:29:32;;;;;;;5.18;1.70;;;6.90;99.90;;;;;;5039885;28;20052;-38
2024/02/07 10:31:57;;;;;;;6.22;1.70;;;6.90;99.90;;;;;;5039481;28;20044;-34
2024/02/07 10:34:24;;;;;;;4.85;1.25;;;7.00;99.90;;;;;;5039123;28;20033;-36
2024/02/07 10:36:59;;;;;;;3.75;1.40;;;6.90;99.90;;;;;;5040699;28;20032;-32
2024/02/07 10:39:25;;;;;;;3.47;1.30;;;7.00;99.90;;;;;;5039710;28;20029;-37
2024/02/07 10:41:50;;;;;;;3.58;1.40;;;7.00;99.90;;;;;;5040017;28;20025;-36
2024/02/07 10:44:17;;;;;;;5.43;1.45;;;7.00;99.90;;;;;;5040376;28;20032;-36
2024/02/07 10:46:42;;;;;;;8.15;1.70;;;7.10;99.90;;;;;;5039418;28;20405;-34
2024/02/07 10:49:12;;;;;;;3.72;1.30;;;7.10;99.90;;;;;;5039717;28;20753;-36
2024/02/07 10:51:40;;;;;;;6.60;1.60;;;7.10;99.90;;;;;;5039319;28;20882;-37
2024/02/07 10:54:07;;;;;;;6.63;1.60;;;7.10;99.90;;;;;;5038589;28;20120;-38
2024/02/07 10:56:37;;;;;;;4.75;1.50;;;7.20;99.90;;;;;;5039284;28;20036;-38
2024/02/07 10:59:04;;;;;;;3.63;1.27;;;7.20;99.90;;;;;;5039345;28;20040;-38
2024/02/07 11:01:30;;;;;;;4.65;1.30;;;7.20;99.90;;;;;;5039086;28;20674;-37
2024/02/07 11:04:00;;;;;;;2.80;1.35;;;7.20;99.90;;;;;;5039405;28;20775;-35
2024/02/07 11:06:27;;;;;;;4.78;1.40;;;7.20;99.90;;;;;;5039126;28;20044;-38
2024/02/07 11:08:57;;;;;;;8.93;1.73;;;7.30;99.90;;;;;;5038850;28;20045;-37
2024/02/07 11:11:28;;;;;;;4.88;1.30;;;7.30;99.90;;;;;;5039007;28;20072;-38
2024/02/07 11:13:56;;;;;;;3.90;1.70;;;7.30;99.90;;;;;;5039689;28;20033;-37
2024/02/07 11:16:22;;;;;;;5.03;1.42;;;7.20;99.90;;;;;;5038861;28;20082;-38
2024/02/07 11:18:48;;;;;;;3.88;1.40;;;7.30;99.90;;;;;;5039862;28;20577;-36
2024/02/07 11:21:18;;;;;;;4.22;1.55;;;7.20;99.90;;;;;;5039663;28;20866;-36
2024/02/07 11:23:46;;;;;;;3.70;1.25;;;7.20;99.90;;;;;;5039392;28;20809;-37
2024/02/07 11:26:13;;;;;;;5.05;1.30;;;7.20;99.90;;;;;;5039135;28;20033;-36
2024/02/07 11:28:39;;;;;;;5.47;1.52;;;7.10;99.90;;;;;;5038351;28;20032;-37
2024/02/07 11:31:09;;;;;;;6.63;1.60;;;7.10;99.90;;;;;;5038887;28;20020;-36
2024/02/07 11:33:38;;;;;;;4.65;1.30;;;7.00;99.90;;;;;;5039159;28;20021;-34
2024/02/07 11:36:13;;;;;;;6.85;2.05;;;7.00;99.90;;;;;;5038693;28;20025;-36
2024/02/07 11:38:39;;;;;;;4.68;1.55;;;7.00;99.90;;;;;;5039620;28;20098;-36
2024/02/07 11:41:06;;;;;;;9.05;2.08;;;7.00;99.90;;;;;;5039913;28;20479;-37
2024/02/07 11:43:36;;;;;;;4.80;1.13;;;7.00;99.90;;;;;;5038668;28;20037;-37
2024/02/07 11:46:06;;;;;;;8.25;1.50;;;7.00;99.90;;;;;;5038720;28;20025;-36
2024/02/07 11:48:37;;;;;;;2.92;1.20;;;7.00;99.90;;;;;;5039009;28;20712;-38
2024/02/07 11:51:16;;;;;;;5.70;1.20;;;7.00;99.90;;;;;;5039245;28;20021;-37
2024/02/07 11:53:41;;;;;;;4.13;1.15;;;6.90;99.90;;;;;;5032632;28;20033;-37
2024/02/07 11:56:13;;;;;;;3.70;1.20;;;7.00;99.90;;;;;;5042320;28;20024;-38
2024/02/07 11:58:46;;;;;;;4.50;1.23;;;6.90;99.90;;;;;;5042414;28;20047;-33
2024/02/07 12:01:12;;;;;;;5.20;1.00;;;6.90;99.90;;;;;;5042510;28;20203;-36
2024/02/07 12:03:38;;;;;;;4.88;1.40;;;6.90;99.90;;;;;;5042596;28;20029;-34
2024/02/07 12:06:10;;;;;;;4.78;1.02;;;6.90;99.90;;;;;;5041693;28;20065;-36
2024/02/07 12:08:37;;;;;;;4.13;1.00;;;6.90;99.90;;;;;;5042715;28;20131;-33
2024/02/07 12:11:10;;;;;;;3.92;1.20;;;6.90;99.90;;;;;;5041968;28;20075;-35
2024/02/07 12:13:35;;;;;;;3.60;1.13;;;6.90;99.90;;;;;;5042362;28;20094;-37
2024/02/07 12:16:04;;;;;;;4.78;1.30;;;6.90;99.90;;;;;;5043244;28;20120;-37
2024/02/07 12:18:30;;;;;;;6.47;1.40;;;7.00;99.90;;;;;;5042549;28;20021;-38
2024/02/07 12:21:03;;;;;;;4.40;1.50;;;7.00;99.90;;;;;;5043194;28;20050;-37
2024/02/07 12:23:29;;;;;;;2.08;0.95;;;7.00;99.90;;;;;;5043781;28;20017;-35
2024/02/07 12:26:03;;;;;;;5.95;1.60;;;7.10;99.90;;;;;;5042515;28;20045;-37
2024/02/07 12:28:29;;;;;;;5.47;0.90;;;7.10;99.90;;;;;;5042585;28;20086;-41
2024/02/07 12:30:56;;;;;;;5.07;1.17;;;7.20;99.90;;;;;;5042475;28;20445;-42
2024/02/07 12:33:23;;;;;;;4.63;1.10;;;7.30;99.90;;;;;;5042130;28;20031;-36
2024/02/07 12:35:59;;;;;;;1.50;0.80;;;7.40;99.90;;;;;;5042701;28;20080;-37
2024/02/07 12:38:25;;;;;;;2.67;1.08;;;7.40;99.90;;;;;;5042713;28;20033;-37
2024/02/07 12:40:52;;;;;;;3.92;0.82;;;7.50;99.90;;;;;;5041849;28;20673;-36
2024/02/07 12:43:25;;;;;;;9.63;2.10;;;7.50;99.90;;;;;;5042529;28;20070;-36
2024/02/07 12:46:00;;;;;;;4.78;1.40;;;7.50;99.90;;;;;;5042729;28;20147;-35
2024/02/07 12:48:26;;;;;;;4.20;0.98;;;7.50;99.90;;;;;;5043096;28;20046;-37
2024/02/07 12:50:55;;;;;;;4.53;0.93;;;7.50;99.90;;;;;;5042546;28;20917;-37
2024/02/07 12:53:21;;;;;;;6.35;1.10;;;7.50;99.90;;;;;;5041873;28;20680;-32
2024/02/07 12:55:48;;;;;;;4.90;0.90;;;7.50;99.90;;;;;;5042938;28;20517;-37
2024/02/07 12:58:15;;;;;;;4.85;1.23;;;7.40;99.90;;;;;;5041503;28;20021;-35
2024/02/07 13:00:41;;;;;;;4.20;1.30;;;7.40;99.90;;;;;;5041404;28;20241;-33
2024/02/07 13:03:07;;;;;;;7.30;1.27;;;7.40;99.90;;;;;;5041478;28;20071;-37
2024/02/07 13:05:34;;;;;;;6.50;1.50;;;7.40;99.90;;;;;;5040855;28;20024;-35
2024/02/07 13:07:59;;;;;;;3.08;1.00;;;7.40;99.90;;;;;;5041448;28;20041;-36
2024/02/07 13:10:25;;;;;;;3.70;0.82;;;7.40;99.90;;;;;;5041754;28;20056;-39
2024/02/07 13:12:50;;;;;;;3.78;1.10;;;7.40;99.90;;;;;;5042340;28;20029;-36
2024/02/07 13:15:20;;;;;;;7.00;1.10;;;7.50;99.90;;;;;;5040610;28;20029;-37
2024/02/07 13:17:48;;;;;;;4.55;1.15;;;7.50;99.90;;;;;;5041936;28;20029;-37
2024/02/07 13:20:14;;;;;;;2.53;0.77;;;7.50;99.90;;;;;;5040764;28;20052;-36
2024/02/07 13:22:39;;;;;;;2.72;0.98;;;7.60;99.90;;;;;;5040328;28;20064;-33
2024/02/07 13:25:14;;;;;;;4.07;0.90;;;7.60;99.90;;;;;;5040538;28;20128;-34
2024/02/07 13:27:41;;;;;;;2.20;0.85;;;7.70;99.90;;;;;;5041744;28;20041;-35
2024/02/07 13:30:07;;;;;;;5.80;1.00;;;7.70;99.90;;;;;;5040771;28;20505;-36
2024/02/07 13:32:33;;;;;;;5.20;1.20;;;7.80;99.90;;;;;;5041546;28;20021;-35
2024/02/07 13:34:59;;;;;;;3.30;0.88;;;7.90;99.90;;;;;;5040880;28;20041;-35
2024/02/07 13:37:25;;;;;;;3.30;1.13;;;8.00;99.90;;;;;;5040441;28;20094;-37
2024/02/07 13:39:55;;;;;;;4.72;1.10;;;8.00;99.90;;;;;;5041182;28;20032;-38
2024/02/07 13:42:21;;;;;;;4.70;0.88;;;8.00;99.90;;;;;;5040202;28;20025;-37
2024/02/07 13:44:46;;;;;;;2.42;0.80;;;8.00;99.90;;;;;;5040982;28;20025;-34
2024/02/07 13:47:12;;;;;;;5.15;1.10;;;8.10;99.90;;;;;;5040804;28;20035;-38
2024/02/07 13:49:37;;;;;;;1.45;0.90;;;8.10;99.90;;;;;;5040243;28;20320;-35
2024/02/07 13:52:04;;;;;;;2.63;0.80;;;8.10;99.90;;;;;;5040861;28;20031;-38
2024/02/07 13:54:29;;;;;;;7.05;1.52;;;8.10;99.90;;;;;;5041547;28;20048;-36
2024/02/07 13:56:55;;;;;;;2.97;0.90;;;8.10;99.90;;;;;;5040112;28;20029;-35
2024/02/07 13:59:21;;;;;;;5.05;1.08;;;8.10;99.90;;;;;;5040942;28;20033;-36
2024/02/07 14:01:46;;;;;;;1.70;0.80;;;8.10;99.90;;;;;;5041390;28;20052;-38